2026/08/06

Sensor Date Temp./Hum.
h4-hermonville 06-08-2026 - 23:58 20.7°C / 43%
h2-hermonville 06-08-2026 - 23:54 21.3°C / 42%
h1-hermonville 06-08-2026 - 23:54 18.2°C / 48%
h3-hermonville 06-08-2026 - 23:50 19.3°C / 45%
h4-hermonville 06-08-2026 - 23:48 20.9°C / 42%
h2-hermonville 06-08-2026 - 23:44 21.6°C / 41%
h1-hermonville 06-08-2026 - 23:44 18.4°C / 47.5%
h3-hermonville 06-08-2026 - 23:40 19.6°C / 44.5%
h4-hermonville 06-08-2026 - 23:38 20.8°C / 42.5%
h2-hermonville 06-08-2026 - 23:34 21.8°C / 42.5%
h1-hermonville 06-08-2026 - 23:34 18.5°C / 47.5%
h3-hermonville 06-08-2026 - 23:30 19.8°C / 44%
h4-hermonville 06-08-2026 - 23:28 21°C / 43%
h2-hermonville 06-08-2026 - 23:24 21.9°C / 43%
h1-hermonville 06-08-2026 - 23:24 18.7°C / 47%
h3-hermonville 06-08-2026 - 23:20 20°C / 44%
h4-hermonville 06-08-2026 - 23:18 21.1°C / 42%
h2-hermonville 06-08-2026 - 23:14 21.9°C / 42%
h1-hermonville 06-08-2026 - 23:14 18.8°C / 47%
h3-hermonville 06-08-2026 - 23:10 20.3°C / 44%
h4-hermonville 06-08-2026 - 23:08 21.2°C / 42.5%
h2-hermonville 06-08-2026 - 23:04 22.2°C / 41%
h1-hermonville 06-08-2026 - 23:04 18.9°C / 47%
h3-hermonville 06-08-2026 - 23:00 20.4°C / 44.5%
h4-hermonville 06-08-2026 - 22:58 21.3°C / 42%
h2-hermonville 06-08-2026 - 22:54 22.2°C / 41%
h1-hermonville 06-08-2026 - 22:54 19.2°C / 47%
h3-hermonville 06-08-2026 - 22:50 20.5°C / 44%
h4-hermonville 06-08-2026 - 22:48 21.4°C / 42.5%
h2-hermonville 06-08-2026 - 22:44 22.5°C / 42%
h1-hermonville 06-08-2026 - 22:44 19.2°C / 46.5%
h3-hermonville 06-08-2026 - 22:40 20.7°C / 44.5%
h4-hermonville 06-08-2026 - 22:38 21.6°C / 43.5%
h2-hermonville 06-08-2026 - 22:34 22.7°C / 41%
h1-hermonville 06-08-2026 - 22:34 19.5°C / 47%
h3-hermonville 06-08-2026 - 22:30 20.8°C / 44%
h4-hermonville 06-08-2026 - 22:28 21.7°C / 43%
h2-hermonville 06-08-2026 - 22:24 22.6°C / 41%
h1-hermonville 06-08-2026 - 22:24 19.6°C / 47%
h3-hermonville 06-08-2026 - 22:20 20.9°C / 43.5%
h4-hermonville 06-08-2026 - 22:18 21.9°C / 43%
h2-hermonville 06-08-2026 - 22:14 22.9°C / 42.5%
h1-hermonville 06-08-2026 - 22:14 19.7°C / 46.5%
h3-hermonville 06-08-2026 - 22:10 21.1°C / 43.5%
h4-hermonville 06-08-2026 - 22:08 21.8°C / 43%
h2-hermonville 06-08-2026 - 22:04 23.4°C / 40.5%
h1-hermonville 06-08-2026 - 22:04 19.9°C / 46%
h3-hermonville 06-08-2026 - 22:00 21.3°C / 43.5%
h4-hermonville 06-08-2026 - 21:58 22°C / 43%
h2-hermonville 06-08-2026 - 21:54 23.8°C / 39.5%
h1-hermonville 06-08-2026 - 21:54 20°C / 46.5%
h3-hermonville 06-08-2026 - 21:50 21.4°C / 43.5%
h4-hermonville 06-08-2026 - 21:48 22°C / 43%
h2-hermonville 06-08-2026 - 21:44 24°C / 38.5%
h1-hermonville 06-08-2026 - 21:44 20.2°C / 46.5%
h3-hermonville 06-08-2026 - 21:40 21.6°C / 43%
h4-hermonville 06-08-2026 - 21:38 22°C / 42.5%
h2-hermonville 06-08-2026 - 21:34 24.6°C / 39%
h1-hermonville 06-08-2026 - 21:34 20.4°C / 46%
h3-hermonville 06-08-2026 - 21:30 21.8°C / 42.5%
h4-hermonville 06-08-2026 - 21:28 22.2°C / 42.5%
h2-hermonville 06-08-2026 - 21:24 24.5°C / 37.5%
h1-hermonville 06-08-2026 - 21:24 20.6°C / 45%
h3-hermonville 06-08-2026 - 21:20 22°C / 42.5%
h4-hermonville 06-08-2026 - 21:18 22.4°C / 42%
h2-hermonville 06-08-2026 - 21:14 24.9°C / 39%
h1-hermonville 06-08-2026 - 21:14 20.9°C / 44.5%
h3-hermonville 06-08-2026 - 21:10 22.1°C / 42%
h4-hermonville 06-08-2026 - 21:08 22.5°C / 41.5%
h2-hermonville 06-08-2026 - 21:04 24.9°C / 37%
h1-hermonville 06-08-2026 - 21:04 21.1°C / 44%
h3-hermonville 06-08-2026 - 21:00 22.3°C / 41.5%
h4-hermonville 06-08-2026 - 20:58 22.7°C / 41%
h2-hermonville 06-08-2026 - 20:54 25.3°C / 38.5%
h1-hermonville 06-08-2026 - 20:54 21.5°C / 43.5%
h3-hermonville 06-08-2026 - 20:50 22.4°C / 41%
h4-hermonville 06-08-2026 - 20:48 22.9°C / 41%
h1-hermonville 06-08-2026 - 20:44 21.7°C / 42.5%
h3-hermonville 06-08-2026 - 20:40 22.8°C / 40.5%
h2-hermonville 06-08-2026 - 20:34 26°C / 38%
h1-hermonville 06-08-2026 - 20:34 22.1°C / 42%
h3-hermonville 06-08-2026 - 20:30 23°C / 39.5%
h4-hermonville 06-08-2026 - 20:28 23.1°C / 40%
h1-hermonville 06-08-2026 - 20:24 22.4°C / 41.5%
h3-hermonville 06-08-2026 - 20:20 23.3°C / 40%
h2-hermonville 06-08-2026 - 20:14 27.4°C / 35.5%
h1-hermonville 06-08-2026 - 20:14 22.5°C / 41.5%
h3-hermonville 06-08-2026 - 20:10 23.5°C / 40%
h4-hermonville 06-08-2026 - 20:08 23.5°C / 40%
h2-hermonville 06-08-2026 - 20:04 29.7°C / 32.5%
h1-hermonville 06-08-2026 - 20:04 22.6°C / 42%
h3-hermonville 06-08-2026 - 20:00 23.7°C / 39.5%
h4-hermonville 06-08-2026 - 19:58 23.6°C / 40%
h2-hermonville 06-08-2026 - 19:54 30.3°C / 30.5%
h1-hermonville 06-08-2026 - 19:54 22.9°C / 42%
h3-hermonville 06-08-2026 - 19:50 23.7°C / 40%
h4-hermonville 06-08-2026 - 19:48 23.7°C / 40%
h2-hermonville 06-08-2026 - 19:44 30.1°C / 30%
h1-hermonville 06-08-2026 - 19:44 23.1°C / 41%
h3-hermonville 06-08-2026 - 19:40 24°C / 39.5%
h2-hermonville 06-08-2026 - 19:34 31.1°C / 30%
h1-hermonville 06-08-2026 - 19:34 23.1°C / 41%
h3-hermonville 06-08-2026 - 19:30 24°C / 39%
h4-hermonville 06-08-2026 - 19:28 24°C / 39.5%
h2-hermonville 06-08-2026 - 19:24 29°C / 33.5%
h1-hermonville 06-08-2026 - 19:24 23.3°C / 40.5%
h3-hermonville 06-08-2026 - 19:20 24°C / 39%
h4-hermonville 06-08-2026 - 19:18 24°C / 39%
h2-hermonville 06-08-2026 - 19:14 29.4°C / 32%
h3-hermonville 06-08-2026 - 19:10 24°C / 38.5%
h4-hermonville 06-08-2026 - 19:08 24.1°C / 39%
h2-hermonville 06-08-2026 - 19:04 31.8°C / 27.5%
h1-hermonville 06-08-2026 - 19:04 23.3°C / 41%
h3-hermonville 06-08-2026 - 19:00 24.4°C / 38.5%
h4-hermonville 06-08-2026 - 18:58 24.2°C / 39%
h2-hermonville 06-08-2026 - 18:54 31.4°C / 30.5%
h1-hermonville 06-08-2026 - 18:54 23.4°C / 41%
h3-hermonville 06-08-2026 - 18:50 24.4°C / 39%
h4-hermonville 06-08-2026 - 18:48 24.3°C / 39%
h2-hermonville 06-08-2026 - 18:44 30.4°C / 32%
h1-hermonville 06-08-2026 - 18:44 23.4°C / 40.5%
h3-hermonville 06-08-2026 - 18:40 24.5°C / 38.5%
h4-hermonville 06-08-2026 - 18:38 24.4°C / 39%
h2-hermonville 06-08-2026 - 18:34 31.3°C / 30.5%
h1-hermonville 06-08-2026 - 18:34 23.6°C / 41%
h3-hermonville 06-08-2026 - 18:30 24.8°C / 38%
h4-hermonville 06-08-2026 - 18:28 24.6°C / 38.5%
h2-hermonville 06-08-2026 - 18:24 31.9°C / 29.5%
h1-hermonville 06-08-2026 - 18:24 24.1°C / 39.5%
h3-hermonville 06-08-2026 - 18:20 24.7°C / 38.5%
h4-hermonville 06-08-2026 - 18:18 24.7°C / 39%
h2-hermonville 06-08-2026 - 18:14 31.3°C / 30.5%
h1-hermonville 06-08-2026 - 18:14 24.2°C / 40.5%
h3-hermonville 06-08-2026 - 18:10 24.9°C / 39%
h4-hermonville 06-08-2026 - 18:08 24.8°C / 39%
h2-hermonville 06-08-2026 - 18:04 31°C / 31.5%
h1-hermonville 06-08-2026 - 18:04 24.1°C / 41%
h3-hermonville 06-08-2026 - 18:00 25°C / 39.5%
h4-hermonville 06-08-2026 - 17:58 24.8°C / 39.5%
h2-hermonville 06-08-2026 - 17:54 32.6°C / 29.5%
h1-hermonville 06-08-2026 - 17:54 24.3°C / 41%
h3-hermonville 06-08-2026 - 17:50 24.8°C / 40.5%
h4-hermonville 06-08-2026 - 17:48 24.7°C / 40%
h2-hermonville 06-08-2026 - 17:44 32.6°C / 28%
h1-hermonville 06-08-2026 - 17:44 24.4°C / 40.5%
h3-hermonville 06-08-2026 - 17:40 24.6°C / 40.5%
h4-hermonville 06-08-2026 - 17:38 24.5°C / 40.5%
h2-hermonville 06-08-2026 - 17:34 32.9°C / 29%
h1-hermonville 06-08-2026 - 17:34 24.3°C / 41.5%
h3-hermonville 06-08-2026 - 17:30 24.8°C / 38.5%
h4-hermonville 06-08-2026 - 17:28 24.4°C / 39%
h2-hermonville 06-08-2026 - 17:24 31.7°C / 29.5%
h1-hermonville 06-08-2026 - 17:24 23.9°C / 42%
h3-hermonville 06-08-2026 - 17:20 24.8°C / 40%
h4-hermonville 06-08-2026 - 17:18 24.3°C / 40.5%
h2-hermonville 06-08-2026 - 17:14 29°C / 35%
h1-hermonville 06-08-2026 - 17:14 23.8°C / 42%
h3-hermonville 06-08-2026 - 17:10 24.5°C / 40%
h4-hermonville 06-08-2026 - 17:08 24.4°C / 40.5%
h2-hermonville 06-08-2026 - 17:04 30.4°C / 32.5%
h1-hermonville 06-08-2026 - 17:04 24°C / 42.5%
h3-hermonville 06-08-2026 - 17:00 25°C / 40%
h4-hermonville 06-08-2026 - 16:58 24.4°C / 41%
h2-hermonville 06-08-2026 - 16:54 28.6°C / 34.5%
h1-hermonville 06-08-2026 - 16:54 23.8°C / 41.5%
h3-hermonville 06-08-2026 - 16:50 24.3°C / 40.5%
h4-hermonville 06-08-2026 - 16:48 24.2°C / 40%
h2-hermonville 06-08-2026 - 16:44 30.8°C / 31%
h1-hermonville 06-08-2026 - 16:44 24°C / 39.5%
h3-hermonville 06-08-2026 - 16:40 24.6°C / 38%
h2-hermonville 06-08-2026 - 16:34 30.7°C / 30.5%
h1-hermonville 06-08-2026 - 16:34 23.9°C / 41%
h3-hermonville 06-08-2026 - 16:30 24.3°C / 40%
h2-hermonville 06-08-2026 - 16:24 29°C / 34.5%
h1-hermonville 06-08-2026 - 16:24 23.8°C / 42%
h3-hermonville 06-08-2026 - 16:20 24.3°C / 41.5%
h4-hermonville 06-08-2026 - 16:18 24.2°C / 40.5%
h2-hermonville 06-08-2026 - 16:14 27.2°C / 37%
h1-hermonville 06-08-2026 - 16:14 23.5°C / 42.5%
h3-hermonville 06-08-2026 - 16:10 24.3°C / 41%
h4-hermonville 06-08-2026 - 16:08 24.4°C / 40%
h2-hermonville 06-08-2026 - 16:04 28.2°C / 35%
h1-hermonville 06-08-2026 - 16:04 23.6°C / 41%
h3-hermonville 06-08-2026 - 16:00 24.3°C / 40.5%
h4-hermonville 06-08-2026 - 15:58 24.3°C / 40%
h2-hermonville 06-08-2026 - 15:54 27.5°C / 37.5%
h1-hermonville 06-08-2026 - 15:54 23.7°C / 42%
h3-hermonville 06-08-2026 - 15:50 24.2°C / 41.5%
h4-hermonville 06-08-2026 - 15:48 24.2°C / 42%
h2-hermonville 06-08-2026 - 15:44 26.7°C / 39.5%
h1-hermonville 06-08-2026 - 15:44 23°C / 45%
h3-hermonville 06-08-2026 - 15:40 23.9°C / 43.5%
h4-hermonville 06-08-2026 - 15:38 24°C / 42%
h2-hermonville 06-08-2026 - 15:34 25.9°C / 40.5%
h1-hermonville 06-08-2026 - 15:34 23.1°C / 45.5%
h3-hermonville 06-08-2026 - 15:30 23.8°C / 42%
h4-hermonville 06-08-2026 - 15:28 24°C / 41.5%
h2-hermonville 06-08-2026 - 15:24 25.9°C / 39%
h1-hermonville 06-08-2026 - 15:24 23°C / 44%
h3-hermonville 06-08-2026 - 15:20 23.5°C / 42%
h4-hermonville 06-08-2026 - 15:18 23.9°C / 41%
h2-hermonville 06-08-2026 - 15:14 25.8°C / 39.5%
h1-hermonville 06-08-2026 - 15:14 22.9°C / 43%
h3-hermonville 06-08-2026 - 15:10 23.5°C / 42.5%
h4-hermonville 06-08-2026 - 15:08 23.8°C / 41.5%
h2-hermonville 06-08-2026 - 15:04 25.5°C / 39.5%
h1-hermonville 06-08-2026 - 15:04 22.9°C / 43.5%
h3-hermonville 06-08-2026 - 15:00 23.2°C / 43.5%
h1-hermonville 06-08-2026 - 14:34 22.4°C / 45%
h3-hermonville 06-08-2026 - 14:30 23°C / 43%
h4-hermonville 06-08-2026 - 14:28 24°C / 40.5%
h2-hermonville 06-08-2026 - 14:24 24.5°C / 41%
h1-hermonville 06-08-2026 - 14:24 22.1°C / 45.5%
h3-hermonville 06-08-2026 - 14:20 22.6°C / 43%
h4-hermonville 06-08-2026 - 14:18 24.2°C / 39.5%
h2-hermonville 06-08-2026 - 14:14 24.3°C / 44%
h1-hermonville 06-08-2026 - 14:14 22°C / 45.5%
h3-hermonville 06-08-2026 - 14:10 22.9°C / 43%
h4-hermonville 06-08-2026 - 14:08 24.2°C / 40%
h2-hermonville 06-08-2026 - 14:04 24.2°C / 41.5%
h1-hermonville 06-08-2026 - 14:04 22.2°C / 44.5%
h3-hermonville 06-08-2026 - 14:00 22.9°C / 42.5%
h2-hermonville 06-08-2026 - 13:54 24.3°C / 41.5%
h1-hermonville 06-08-2026 - 13:54 22.1°C / 44%
h3-hermonville 06-08-2026 - 13:50 22.8°C / 41.5%
h4-hermonville 06-08-2026 - 13:48 24.2°C / 41%
h2-hermonville 06-08-2026 - 13:44 23.8°C / 43.5%
h1-hermonville 06-08-2026 - 13:44 22.3°C / 48%
h3-hermonville 06-08-2026 - 13:40 23°C / 44.5%
h4-hermonville 06-08-2026 - 13:38 24.2°C / 42%
h2-hermonville 06-08-2026 - 13:34 23°C / 46.5%
h1-hermonville 06-08-2026 - 13:34 22°C / 48.5%
h3-hermonville 06-08-2026 - 13:30 22.3°C / 47%
h4-hermonville 06-08-2026 - 13:28 24.3°C / 42.5%
h2-hermonville 06-08-2026 - 13:24 23.1°C / 47%
h1-hermonville 06-08-2026 - 13:24 21.9°C / 50%
h3-hermonville 06-08-2026 - 13:20 22.3°C / 48.5%
h4-hermonville 06-08-2026 - 13:18 24.5°C / 41.5%
h2-hermonville 06-08-2026 - 13:14 22.9°C / 46.5%
h1-hermonville 06-08-2026 - 13:14 21.4°C / 50.5%
h3-hermonville 06-08-2026 - 13:10 22.2°C / 47.5%
h4-hermonville 06-08-2026 - 13:08 24.4°C / 43%
h2-hermonville 06-08-2026 - 13:04 23.2°C / 48.5%
h1-hermonville 06-08-2026 - 13:04 21.3°C / 51.5%
h3-hermonville 06-08-2026 - 13:00 22°C / 48.5%
h4-hermonville 06-08-2026 - 12:58 24.4°C / 42%
h2-hermonville 06-08-2026 - 12:54 23°C / 47%
h1-hermonville 06-08-2026 - 12:54 21.4°C / 49%
h3-hermonville 06-08-2026 - 12:50 21.9°C / 47.5%
h4-hermonville 06-08-2026 - 12:48 24.4°C / 40.5%
h2-hermonville 06-08-2026 - 12:44 22.6°C / 48%
h1-hermonville 06-08-2026 - 12:44 21.6°C / 47.5%
h3-hermonville 06-08-2026 - 12:40 21.8°C / 47%
h4-hermonville 06-08-2026 - 12:38 24.7°C / 40.5%
h2-hermonville 06-08-2026 - 12:34 22.2°C / 48.5%
h1-hermonville 06-08-2026 - 12:34 21.7°C / 48.5%
h3-hermonville 06-08-2026 - 12:30 21.6°C / 48.5%
h2-hermonville 06-08-2026 - 12:24 22.1°C / 50.5%
h1-hermonville 06-08-2026 - 12:24 21.9°C / 50.5%
h3-hermonville 06-08-2026 - 12:20 21.7°C / 51%
h4-hermonville 06-08-2026 - 12:18 25°C / 43%
h2-hermonville 06-08-2026 - 12:14 21.7°C / 51.5%
h1-hermonville 06-08-2026 - 12:14 21.8°C / 52%
h3-hermonville 06-08-2026 - 12:10 21.4°C / 52%
h2-hermonville 06-08-2026 - 12:04 21.9°C / 51%
h1-hermonville 06-08-2026 - 12:04 21.2°C / 53%
h3-hermonville 06-08-2026 - 12:00 21.3°C / 52.5%
h4-hermonville 06-08-2026 - 11:58 25.1°C / 41.5%
h1-hermonville 06-08-2026 - 11:54 21.2°C / 52.5%
h2-hermonville 06-08-2026 - 11:54 21.3°C / 51%
h3-hermonville 06-08-2026 - 11:50 21.1°C / 52%
h4-hermonville 06-08-2026 - 11:48 25.1°C / 41%
h2-hermonville 06-08-2026 - 11:44 21.8°C / 52%
h1-hermonville 06-08-2026 - 11:44 20.7°C / 55%
h3-hermonville 06-08-2026 - 11:40 20.8°C / 54%
h4-hermonville 06-08-2026 - 11:38 25°C / 42.5%
h1-hermonville 06-08-2026 - 11:34 20.7°C / 53%
h3-hermonville 06-08-2026 - 11:30 21°C / 52%
h4-hermonville 06-08-2026 - 11:28 26.4°C / 40.5%
h2-hermonville 06-08-2026 - 11:24 20.8°C / 55.5%
h3-hermonville 06-08-2026 - 11:20 20.6°C / 55%
h4-hermonville 06-08-2026 - 11:18 26.4°C / 40%
h2-hermonville 06-08-2026 - 11:14 20.2°C / 54%
h1-hermonville 06-08-2026 - 11:14 21.3°C / 52%
h3-hermonville 06-08-2026 - 11:10 20.4°C / 53%
h4-hermonville 06-08-2026 - 11:08 27°C / 39%
h2-hermonville 06-08-2026 - 11:04 20.2°C / 57%
h3-hermonville 06-08-2026 - 11:00 20.6°C / 54.5%
h1-hermonville 06-08-2026 - 10:54 21.1°C / 55.5%
h3-hermonville 06-08-2026 - 10:50 20.8°C / 55%
h4-hermonville 06-08-2026 - 10:48 29.8°C / 35.5%
h2-hermonville 06-08-2026 - 10:44 20.3°C / 59%
h1-hermonville 06-08-2026 - 10:44 20.7°C / 57.5%
h3-hermonville 06-08-2026 - 10:40 20.7°C / 56%
h4-hermonville 06-08-2026 - 10:38 28.7°C / 38%
h1-hermonville 06-08-2026 - 10:34 20.1°C / 59%
h3-hermonville 06-08-2026 - 10:30 20.5°C / 57%
h4-hermonville 06-08-2026 - 10:28 27.9°C / 39.5%
h2-hermonville 06-08-2026 - 10:24 19.8°C / 62%
h3-hermonville 06-08-2026 - 10:20 20.5°C / 59%
h4-hermonville 06-08-2026 - 10:18 29.2°C / 38%
h2-hermonville 06-08-2026 - 10:14 19.4°C / 63%
h1-hermonville 06-08-2026 - 10:14 20.1°C / 60.5%
h3-hermonville 06-08-2026 - 10:10 20.4°C / 59%
h2-hermonville 06-08-2026 - 10:04 19°C / 64.5%
h1-hermonville 06-08-2026 - 10:04 19.9°C / 61.5%
h3-hermonville 06-08-2026 - 10:00 20.1°C / 60.5%
h4-hermonville 06-08-2026 - 09:58 26.2°C / 44%
h2-hermonville 06-08-2026 - 09:54 18.9°C / 65%
h1-hermonville 06-08-2026 - 09:54 19.7°C / 62%
h3-hermonville 06-08-2026 - 09:50 19.6°C / 62%
h4-hermonville 06-08-2026 - 09:48 27.4°C / 41.5%
h2-hermonville 06-08-2026 - 09:44 18.7°C / 66%
h1-hermonville 06-08-2026 - 09:44 19.6°C / 63%
h3-hermonville 06-08-2026 - 09:40 19.7°C / 62%
h4-hermonville 06-08-2026 - 09:38 29.1°C / 38.5%
h1-hermonville 06-08-2026 - 09:34 19.2°C / 64.5%
h3-hermonville 06-08-2026 - 09:30 19.4°C / 63%
h4-hermonville 06-08-2026 - 09:28 29.2°C / 38.5%
h2-hermonville 06-08-2026 - 09:24 18.6°C / 66.5%
h1-hermonville 06-08-2026 - 09:24 18.5°C / 66%
h3-hermonville 06-08-2026 - 09:20 19.4°C / 62.5%
h4-hermonville 06-08-2026 - 09:18 29.3°C / 38%
h2-hermonville 06-08-2026 - 09:14 18.1°C / 68%
h1-hermonville 06-08-2026 - 09:14 18.7°C / 65.5%
h3-hermonville 06-08-2026 - 09:10 19.4°C / 62.5%
h4-hermonville 06-08-2026 - 09:08 28.5°C / 40%
h2-hermonville 06-08-2026 - 09:04 17.8°C / 68%
h1-hermonville 06-08-2026 - 09:04 18.9°C / 64.5%
h3-hermonville 06-08-2026 - 09:00 19.1°C / 62.5%
h4-hermonville 06-08-2026 - 08:58 26.1°C / 44%
h2-hermonville 06-08-2026 - 08:54 17.6°C / 67.5%
h1-hermonville 06-08-2026 - 08:54 18.4°C / 65%
h3-hermonville 06-08-2026 - 08:50 19.1°C / 61.5%
h4-hermonville 06-08-2026 - 08:48 23.7°C / 49%
h2-hermonville 06-08-2026 - 08:44 17.6°C / 67%
h1-hermonville 06-08-2026 - 08:44 18.7°C / 63%
h3-hermonville 06-08-2026 - 08:40 18.6°C / 62.5%
h4-hermonville 06-08-2026 - 08:38 23.2°C / 48.5%
h2-hermonville 06-08-2026 - 08:34 17.5°C / 66.5%
h1-hermonville 06-08-2026 - 08:34 18.6°C / 62.5%
h3-hermonville 06-08-2026 - 08:30 18.6°C / 62%
h4-hermonville 06-08-2026 - 08:28 22.3°C / 51.5%
h2-hermonville 06-08-2026 - 08:24 17.2°C / 66.5%
h1-hermonville 06-08-2026 - 08:24 18.6°C / 62%
h3-hermonville 06-08-2026 - 08:20 18.4°C / 62%
h4-hermonville 06-08-2026 - 08:18 21.4°C / 53%
h2-hermonville 06-08-2026 - 08:14 17.4°C / 66.5%
h1-hermonville 06-08-2026 - 08:14 18.7°C / 62%
h3-hermonville 06-08-2026 - 08:10 18.9°C / 60.5%
h4-hermonville 06-08-2026 - 08:08 21°C / 54%
h2-hermonville 06-08-2026 - 08:04 17°C / 66.5%
h1-hermonville 06-08-2026 - 08:04 18.6°C / 61.5%
h3-hermonville 06-08-2026 - 08:00 18.6°C / 60.5%
h4-hermonville 06-08-2026 - 07:58 20.5°C / 54.5%
h2-hermonville 06-08-2026 - 07:54 16.8°C / 67.5%
h1-hermonville 06-08-2026 - 07:54 18.5°C / 61.5%
h3-hermonville 06-08-2026 - 07:50 18.7°C / 60.5%
h4-hermonville 06-08-2026 - 07:48 20.2°C / 55.5%
h2-hermonville 06-08-2026 - 07:44 16.5°C / 68%
h1-hermonville 06-08-2026 - 07:44 18.3°C / 61.5%
h3-hermonville 06-08-2026 - 07:40 18.5°C / 60.5%
h4-hermonville 06-08-2026 - 07:38 20°C / 55.5%
h2-hermonville 06-08-2026 - 07:34 16.3°C / 68%
h1-hermonville 06-08-2026 - 07:34 18.4°C / 61%
h3-hermonville 06-08-2026 - 07:30 18.5°C / 60.5%
h4-hermonville 06-08-2026 - 07:28 20.1°C / 55%
h1-hermonville 06-08-2026 - 07:24 18.3°C / 61.5%
h3-hermonville 06-08-2026 - 07:20 18.1°C / 61.5%
h4-hermonville 06-08-2026 - 07:18 19.9°C / 55%
h2-hermonville 06-08-2026 - 07:14 16°C / 68.5%
h1-hermonville 06-08-2026 - 07:14 18.2°C / 61%
h3-hermonville 06-08-2026 - 07:10 17.3°C / 63%
h4-hermonville 06-08-2026 - 07:08 19.7°C / 55%
h2-hermonville 06-08-2026 - 07:04 16°C / 68%
h1-hermonville 06-08-2026 - 07:04 18°C / 61.5%
h3-hermonville 06-08-2026 - 07:00 17.2°C / 63.5%
h4-hermonville 06-08-2026 - 06:58 19.5°C / 55.5%
h1-hermonville 06-08-2026 - 06:54 17.7°C / 62%
h3-hermonville 06-08-2026 - 06:50 18°C / 60.5%
h4-hermonville 06-08-2026 - 06:48 19.3°C / 55.5%
h2-hermonville 06-08-2026 - 06:44 16.2°C / 66.5%
h1-hermonville 06-08-2026 - 06:44 17.6°C / 62.5%
h3-hermonville 06-08-2026 - 06:40 18.8°C / 57.5%
h4-hermonville 06-08-2026 - 06:38 19.3°C / 55%
h2-hermonville 06-08-2026 - 06:34 16.4°C / 66%
h1-hermonville 06-08-2026 - 06:34 17.4°C / 63%
h3-hermonville 06-08-2026 - 06:30 18.9°C / 58%
h4-hermonville 06-08-2026 - 06:28 19.7°C / 55.5%
h2-hermonville 06-08-2026 - 06:24 16.8°C / 65%
h1-hermonville 06-08-2026 - 06:24 17.1°C / 64.5%
h3-hermonville 06-08-2026 - 06:20 18.6°C / 58.5%
h4-hermonville 06-08-2026 - 06:18 19.7°C / 54.5%
h2-hermonville 06-08-2026 - 06:14 17.2°C / 64%
h1-hermonville 06-08-2026 - 06:14 17°C / 64%
h3-hermonville 06-08-2026 - 06:10 18.7°C / 58%
h4-hermonville 06-08-2026 - 06:08 19.6°C / 54.5%
h1-hermonville 06-08-2026 - 06:04 17.4°C / 62%
h3-hermonville 06-08-2026 - 06:00 18.2°C / 58.5%
h4-hermonville 06-08-2026 - 05:58 19.5°C / 54%
h2-hermonville 06-08-2026 - 05:54 16.9°C / 63%
h1-hermonville 06-08-2026 - 05:54 17.7°C / 60%
h3-hermonville 06-08-2026 - 05:50 18.6°C / 57%
h4-hermonville 06-08-2026 - 05:48 19.8°C / 53%
h2-hermonville 06-08-2026 - 05:44 16.9°C / 63%
h1-hermonville 06-08-2026 - 05:44 18.4°C / 58.5%
h3-hermonville 06-08-2026 - 05:40 18.3°C / 57.5%
h4-hermonville 06-08-2026 - 05:38 20°C / 52.5%
h2-hermonville 06-08-2026 - 05:34 16.8°C / 62.5%
h1-hermonville 06-08-2026 - 05:34 18.5°C / 57.5%
h3-hermonville 06-08-2026 - 05:30 19.6°C / 53.5%
h4-hermonville 06-08-2026 - 05:28 19.9°C / 52%
h1-hermonville 06-08-2026 - 05:24 18.6°C / 57%
h3-hermonville 06-08-2026 - 05:20 19.8°C / 52.5%
h4-hermonville 06-08-2026 - 05:18 19.9°C / 51%
h1-hermonville 06-08-2026 - 05:14 18.4°C / 56.5%
h3-hermonville 06-08-2026 - 05:10 19.6°C / 53%
h4-hermonville 06-08-2026 - 05:08 20°C / 50.5%
h2-hermonville 06-08-2026 - 05:04 17.3°C / 59%
h1-hermonville 06-08-2026 - 05:04 18.4°C / 56.5%
h3-hermonville 06-08-2026 - 05:00 19.7°C / 52.5%
h4-hermonville 06-08-2026 - 04:58 20.1°C / 50%
h1-hermonville 06-08-2026 - 04:54 18°C / 57%
h3-hermonville 06-08-2026 - 04:50 19.7°C / 52.5%
h4-hermonville 06-08-2026 - 04:48 20.3°C / 49.5%
h2-hermonville 06-08-2026 - 04:44 17.8°C / 56%
h1-hermonville 06-08-2026 - 04:44 17.6°C / 58%
h3-hermonville 06-08-2026 - 04:40 19.3°C / 53%
h4-hermonville 06-08-2026 - 04:38 20.4°C / 49.5%
h2-hermonville 06-08-2026 - 04:34 17.8°C / 56%
h1-hermonville 06-08-2026 - 04:34 17.3°C / 57.5%
h3-hermonville 06-08-2026 - 04:30 19.3°C / 52%
h4-hermonville 06-08-2026 - 04:28 20.3°C / 50%
h2-hermonville 06-08-2026 - 04:24 17.5°C / 56.5%
h1-hermonville 06-08-2026 - 04:24 17.3°C / 57%
h3-hermonville 06-08-2026 - 04:20 19.6°C / 52.5%
h2-hermonville 06-08-2026 - 04:14 17.5°C / 58%
h1-hermonville 06-08-2026 - 04:14 17.4°C / 59%
h3-hermonville 06-08-2026 - 04:10 19.5°C / 52.5%
h4-hermonville 06-08-2026 - 04:08 20.3°C / 50%
h2-hermonville 06-08-2026 - 04:04 17.7°C / 58%
h1-hermonville 06-08-2026 - 04:04 17.4°C / 59%
h3-hermonville 06-08-2026 - 04:00 19.6°C / 52.5%
h4-hermonville 06-08-2026 - 03:58 20.4°C / 50.5%
h2-hermonville 06-08-2026 - 03:54 18.2°C / 56.5%
h1-hermonville 06-08-2026 - 03:54 17.5°C / 59%
h3-hermonville 06-08-2026 - 03:50 19.5°C / 53.5%
h4-hermonville 06-08-2026 - 03:48 20.8°C / 50.5%
h2-hermonville 06-08-2026 - 03:44 18.7°C / 55%
h1-hermonville 06-08-2026 - 03:44 17.6°C / 59%
h3-hermonville 06-08-2026 - 03:40 19.3°C / 53.5%
h4-hermonville 06-08-2026 - 03:38 20.9°C / 50%
h2-hermonville 06-08-2026 - 03:34 19.4°C / 53.5%
h1-hermonville 06-08-2026 - 03:34 17.7°C / 59%
h3-hermonville 06-08-2026 - 03:30 19.1°C / 54%
h4-hermonville 06-08-2026 - 03:28 21°C / 49.5%
h2-hermonville 06-08-2026 - 03:24 19.8°C / 54.5%
h1-hermonville 06-08-2026 - 03:24 17.8°C / 57.5%
h3-hermonville 06-08-2026 - 03:20 19.3°C / 53.5%
h4-hermonville 06-08-2026 - 03:18 21°C / 49.5%
h2-hermonville 06-08-2026 - 03:14 19.4°C / 54%
h1-hermonville 06-08-2026 - 03:14 17.9°C / 57.5%
h3-hermonville 06-08-2026 - 03:10 19.5°C / 52.5%
h4-hermonville 06-08-2026 - 03:08 21.1°C / 49.5%
h2-hermonville 06-08-2026 - 03:04 19.3°C / 54.5%
h1-hermonville 06-08-2026 - 03:04 17.9°C / 57%
h3-hermonville 06-08-2026 - 03:00 19.7°C / 52.5%
h4-hermonville 06-08-2026 - 02:58 21.1°C / 50.5%
h2-hermonville 06-08-2026 - 02:54 18.5°C / 58%
h1-hermonville 06-08-2026 - 02:54 18.2°C / 58%
h3-hermonville 06-08-2026 - 02:50 20.2°C / 54%
h4-hermonville 06-08-2026 - 02:48 21°C / 51.5%
h2-hermonville 06-08-2026 - 02:44 18.3°C / 59%
h1-hermonville 06-08-2026 - 02:44 17.8°C / 60%
h3-hermonville 06-08-2026 - 02:40 20°C / 54.5%
h4-hermonville 06-08-2026 - 02:38 21.1°C / 52.5%
h2-hermonville 06-08-2026 - 02:34 18.4°C / 60%
h1-hermonville 06-08-2026 - 02:34 17.9°C / 61.5%
h3-hermonville 06-08-2026 - 02:30 20.3°C / 54%
h4-hermonville 06-08-2026 - 02:28 21°C / 53%
h2-hermonville 06-08-2026 - 02:24 18.2°C / 61%
h1-hermonville 06-08-2026 - 02:24 18.1°C / 61%
h3-hermonville 06-08-2026 - 02:20 20.6°C / 54%
h4-hermonville 06-08-2026 - 02:18 21°C / 53.5%
h2-hermonville 06-08-2026 - 02:14 18.7°C / 61%
h1-hermonville 06-08-2026 - 02:14 18.2°C / 61.5%
h3-hermonville 06-08-2026 - 02:10 20.6°C / 54.5%
h4-hermonville 06-08-2026 - 02:08 21.4°C / 52%
h2-hermonville 06-08-2026 - 02:04 19.2°C / 58%
h1-hermonville 06-08-2026 - 02:04 18.7°C / 60%
h3-hermonville 06-08-2026 - 02:00 20.8°C / 54%
h4-hermonville 06-08-2026 - 01:58 21.6°C / 51%
h2-hermonville 06-08-2026 - 01:54 19.5°C / 58%
h1-hermonville 06-08-2026 - 01:54 18.7°C / 59.5%
h3-hermonville 06-08-2026 - 01:50 20.5°C / 54.5%
h4-hermonville 06-08-2026 - 01:48 21.8°C / 51%
h2-hermonville 06-08-2026 - 01:44 19.9°C / 56%
h1-hermonville 06-08-2026 - 01:44 18.7°C / 59.5%
h3-hermonville 06-08-2026 - 01:40 20.5°C / 53.5%
h2-hermonville 06-08-2026 - 01:34 20.1°C / 55%
h1-hermonville 06-08-2026 - 01:34 18.8°C / 59%
h3-hermonville 06-08-2026 - 01:30 20.5°C / 53.5%
h4-hermonville 06-08-2026 - 01:28 22.1°C / 51%
h1-hermonville 06-08-2026 - 01:24 18.9°C / 59%
h3-hermonville 06-08-2026 - 01:20 20.7°C / 54%
h4-hermonville 06-08-2026 - 01:18 22°C / 50.5%
h1-hermonville 06-08-2026 - 01:14 19.1°C / 59%
h4-hermonville 06-08-2026 - 01:08 22.1°C / 50.5%
h2-hermonville 06-08-2026 - 01:04 20.7°C / 54.5%
h1-hermonville 06-08-2026 - 01:04 19.1°C / 59.5%
h3-hermonville 06-08-2026 - 01:00 20.9°C / 53.5%
h4-hermonville 06-08-2026 - 00:58 22.3°C / 50%
h2-hermonville 06-08-2026 - 00:54 21.1°C / 53.5%
h1-hermonville 06-08-2026 - 00:54 19.2°C / 59%
h3-hermonville 06-08-2026 - 00:50 20.8°C / 53.5%
h4-hermonville 06-08-2026 - 00:48 22.3°C / 51%
h2-hermonville 06-08-2026 - 00:44 20.9°C / 54%
h1-hermonville 06-08-2026 - 00:44 19.2°C / 59%
h3-hermonville 06-08-2026 - 00:40 20.9°C / 55%
h4-hermonville 06-08-2026 - 00:38 22.3°C / 51%
h2-hermonville 06-08-2026 - 00:34 21.1°C / 54.5%
h1-hermonville 06-08-2026 - 00:34 19.4°C / 59.5%
h3-hermonville 06-08-2026 - 00:30 21°C / 54.5%
h4-hermonville 06-08-2026 - 00:28 22.6°C / 51.5%
h1-hermonville 06-08-2026 - 00:24 19.5°C / 59.5%
h3-hermonville 06-08-2026 - 00:20 21.2°C / 54%
h4-hermonville 06-08-2026 - 00:18 22.6°C / 51.5%
h2-hermonville 06-08-2026 - 00:14 21.5°C / 54%
h1-hermonville 06-08-2026 - 00:14 19.7°C / 59.5%
h3-hermonville 06-08-2026 - 00:10 21.3°C / 54%
h4-hermonville 06-08-2026 - 00:08 22.8°C / 51%
h1-hermonville 06-08-2026 - 00:04 19.8°C / 59.5%
h3-hermonville 06-08-2026 - 00:00 21.5°C / 54%